Time;durP1;ratioP1;P1;durP2;ratioP2;P2;SDS_P1;SDS_P2;PMS_P1;PMS_P2;Temp;Humidity;BMP_temperature;BMP_pressure;BME280_temperature;BME280_humidity;BME280_pressure;Samples;Min_cycle;Max_cycle;Signal;HPM_P1;HPM_P2
2021/03/05 00:02:05;;;;;;;;;;;205.20;1433.60;;;;;;5116588;28;19904;-80
2021/03/05 00:04:30;;;;;;;;;;;205.40;1408.00;;;;;;5098083;28;20006;-80
2021/03/05 00:06:56;;;;;;;;;;;205.30;1433.60;;;;;;5116331;28;19943;-79
2021/03/05 00:09:21;;;;;;;;;;;205.30;1459.20;;;;;;5116441;28;20129;-80
2021/03/05 00:11:47;;;;;;;;;;;205.30;1484.80;;;;;;5098186;28;19942;-80
2021/03/05 00:14:13;;;;;;;;;;;205.20;1459.20;;;;;;5112924;28;20360;-80
2021/03/05 00:16:38;;;;;;;;;;;205.20;1459.20;;;;;;5092419;28;19930;-80
2021/03/05 00:19:04;;;;;;;;;;;205.20;1484.80;;;;;;5109680;28;19927;-80
2021/03/05 00:21:29;;;;;;;;;;;205.20;1484.80;;;;;;5107161;28;19907;-80
2021/03/05 00:23:55;;;;;;;;;;;205.20;1510.40;;;;;;5110876;28;19904;-79
2021/03/05 00:26:20;;;;;;;;;;;205.30;1510.40;;;;;;5115503;28;20044;-80
2021/03/05 00:28:46;;;;;;;;;;;205.30;1510.40;;;;;;5116060;28;20357;-79
2021/03/05 00:31:11;;;;;;;;;;;205.30;1510.40;;;;;;5116006;28;20432;-80
2021/03/05 00:33:37;;;;;;;;;;;205.40;1484.80;;;;;;5097491;28;19907;-80
2021/03/05 00:36:03;;;;;;;;;;;205.50;1484.80;;;;;;5115800;28;20124;-80
2021/03/05 00:38:28;;;;;;;;;;;205.40;1510.40;;;;;;5113317;28;19939;-79
2021/03/05 00:40:55;;;;;;;;;;;205.30;1510.40;;;;;;5111987;28;19908;-79
2021/03/05 00:43:21;;;;;;;;;;;205.30;1536.00;;;;;;5108973;28;20334;-80
2021/03/05 00:45:47;;;;;;;;;;;205.20;1510.40;;;;;;5113060;28;20004;-79
2021/03/05 00:48:12;;;;;;;;;;;205.10;1484.80;;;;;;5094212;28;19931;-80
2021/03/05 00:50:38;;;;;;;;;;;205.00;1510.40;;;;;;5112542;28;20537;-79
2021/03/05 00:53:03;;;;;;;;;;;180.10;1433.60;;;;;;5110139;28;19946;-80
2021/03/05 00:55:29;;;;;;;;;;;180.00;1459.20;;;;;;5092346;28;19923;-80
2021/03/05 00:57:54;;;;;;;;;;;180.10;1484.80;;;;;;5097498;28;19986;-79
2021/03/05 01:00:20;;;;;;;;;;;204.80;1510.40;;;;;;5097491;28;19908;-80
2021/03/05 01:02:46;;;;;;;;;;;204.90;1510.40;;;;;;5112244;28;20438;-80
2021/03/05 01:05:12;;;;;;;;;;;205.00;1510.40;;;;;;5087691;28;19928;-80
2021/03/05 01:07:38;;;;;;;;;;;205.00;1536.00;;;;;;5087409;28;19908;-80
2021/03/05 01:10:04;;;;;;;;;;;204.80;1536.00;;;;;;5112284;28;19903;-80
2021/03/05 01:12:30;;;;;;;;;;;204.80;1510.40;;;;;;5115027;28;19907;-80
2021/03/05 01:14:56;;;;;;;;;;;180.10;1536.00;;;;;;5094084;28;20353;-80
2021/03/05 01:17:21;;;;;;;;;;;204.90;1536.00;;;;;;5101054;28;20413;-79
2021/03/05 01:19:47;;;;;;;;;;;205.00;1536.00;;;;;;5097957;28;19994;-79
2021/03/05 01:22:12;;;;;;;;;;;205.00;1536.00;;;;;;5097376;28;19908;-79
2021/03/05 01:24:38;;;;;;;;;;;205.00;1536.00;;;;;;5099231;28;19907;-79
2021/03/05 01:27:04;;;;;;;;;;;205.10;1612.80;;;;;;5104065;28;19904;-79
2021/03/05 01:29:29;;;;;;;;;;;205.10;1638.40;;;;;;5105999;28;20064;-79
2021/03/05 01:31:55;;;;;;;;;;;205.10;1689.60;;;;;;5095431;28;20424;-79
2021/03/05 01:34:21;;;;;;;;;;;205.20;1587.20;;;;;;5092142;28;20316;-80
2021/03/05 01:36:46;;;;;;;;;;;205.30;1561.60;;;;;;5093177;28;19908;-79
2021/03/05 01:39:12;;;;;;;;;;;205.40;1536.00;;;;;;5076914;28;19908;-79
2021/03/05 01:41:38;;;;;;;;;;;205.40;1561.60;;;;;;5098070;28;20276;-80
2021/03/05 01:44:07;;;;;;;;;;;205.30;1561.60;;;;;;5104155;28;19957;-79
2021/03/05 01:46:33;;;;;;;;;;;205.30;1561.60;;;;;;5101347;28;19908;-79
2021/03/05 01:48:59;;;;;;;;;;;230.40;1510.40;;;;;;5087782;28;19908;-80
2021/03/05 01:51:26;;;;;;;;;;;205.50;1510.40;;;;;;5103633;28;20234;-79
2021/03/05 01:53:52;;;;;;;;;;;205.50;1459.20;;;;;;5085415;28;19904;-80
2021/03/05 01:56:20;;;;;;;;;;;205.60;1459.20;;;;;;5082924;28;20277;-79
2021/03/05 01:58:46;;;;;;;;;;;205.50;1484.80;;;;;;5097229;28;19904;-80
2021/03/05 02:01:11;;;;;;;;;;;205.20;1536.00;;;;;;5080237;28;20002;-80
2021/03/05 02:03:37;;;;;;;;;;;205.20;1536.00;;;;;;5081698;28;19908;-80
2021/03/05 02:06:04;;;;;;;;;;;205.20;1510.40;;;;;;5113910;28;19969;-80
2021/03/05 02:08:29;;;;;;;;;;;205.30;1484.80;;;;;;5113838;28;19914;-79
2021/03/05 02:10:55;;;;;;;;;;;205.30;1510.40;;;;;;5114007;28;19904;-80
2021/03/05 02:13:21;;;;;;;;;;;205.30;1510.40;;;;;;5114079;28;19904;-80
2021/03/05 02:15:46;;;;;;;;;;;205.30;1510.40;;;;;;5093833;28;19957;-79
2021/03/05 02:18:31;;;;;;;;;;;205.20;1510.40;;;;;;5095363;28;19912;-78
2021/03/05 02:21:15;;;;;;;;;;;205.10;1561.60;;;;;;5113680;28;19904;-79
2021/03/05 02:23:53;;;;;;;;;;;204.90;1587.20;;;;;;5095457;28;19908;-79
2021/03/05 02:26:24;;;;;;;;;;;204.90;1561.60;;;;;;5113732;28;19927;-78
2021/03/05 02:29:08;;;;;;;;;;;204.90;1561.60;;;;;;5113800;28;20002;-80
2021/03/05 02:31:44;;;;;;;;;;;204.90;1587.20;;;;;;5113477;28;20276;-78
2021/03/05 02:34:16;;;;;;;;;;;205.00;1561.60;;;;;;5113357;28;19916;-78
2021/03/05 02:36:53;;;;;;;;;;;205.00;1561.60;;;;;;5111948;28;19947;-79
2021/03/05 02:39:24;;;;;;;;;;;205.10;1561.60;;;;;;5113456;28;19904;-78
2021/03/05 02:41:54;;;;;;;;;;;205.00;1587.20;;;;;;5095365;28;19907;-78
2021/03/05 02:44:22;;;;;;;;;;;205.10;1587.20;;;;;;5111481;28;19954;-79
2021/03/05 02:46:48;;;;;;;;;;;205.00;1612.80;;;;;;5095256;28;19904;-79
2021/03/05 02:49:16;;;;;;;;;;;205.00;1587.20;;;;;;5113186;28;20002;-79
2021/03/05 02:51:44;;;;;;;;;;;205.10;1536.00;;;;;;5113393;28;19979;-79
2021/03/05 02:54:11;;;;;;;;;;;205.10;1536.00;;;;;;5095105;28;19916;-79
2021/03/05 02:56:37;;;;;;;;;;;205.00;1536.00;;;;;;5113212;28;19912;-79
2021/03/05 02:59:04;;;;;;;;;;;205.00;1561.60;;;;;;5097760;27;19918;-79
2021/03/05 03:01:31;;;;;;;;;;;205.00;1561.60;;;;;;5121397;27;20384;-80
2021/03/05 03:03:58;;;;;;;;;;;205.00;1561.60;;;;;;5126903;27;19922;-79
2021/03/05 03:06:25;;;;;;;;;;;204.90;1561.60;;;;;;5113272;28;20033;-79
2021/03/05 03:08:52;;;;;;;;;;;204.90;1561.60;;;;;;5112924;28;19915;-78
2021/03/05 03:11:18;;;;;;;;;;;180.10;1612.80;;;;;;5113192;28;19911;-80
2021/03/05 03:13:45;;;;;;;;;;;180.00;1612.80;;;;;;5094593;28;20003;-79
2021/03/05 03:16:10;;;;;;;;;;;179.90;1638.40;;;;;;5094719;28;20449;-79
2021/03/05 03:18:38;;;;;;;;;;;180.00;1612.80;;;;;;5094438;28;19939;-80
2021/03/05 03:21:04;;;;;;;;;;;180.00;1561.60;;;;;;5111492;28;19915;-80
2021/03/05 03:23:29;;;;;;;;;;;180.10;1561.60;;;;;;5094703;28;19918;-80
2021/03/05 03:25:58;;;;;;;;;;;180.10;1536.00;;;;;;5123059;28;19912;-79
2021/03/05 03:28:24;;;;;;;;;;;180.10;1561.60;;;;;;5096696;28;19908;-80
2021/03/05 03:30:49;;;;;;;;;;;180.00;1587.20;;;;;;5110530;28;19903;-80
2021/03/05 03:33:15;;;;;;;;;;;179.90;1587.20;;;;;;5107400;28;19939;-79
2021/03/05 03:35:41;;;;;;;;;;;179.90;1587.20;;;;;;5108395;28;19919;-79
2021/03/05 03:38:07;;;;;;;;;;;179.90;1587.20;;;;;;5127622;28;20345;-77
2021/03/05 03:40:34;;;;;;;;;;;179.90;1587.20;;;;;;5101876;28;19908;-80
2021/03/05 03:42:59;;;;;;;;;;;180.00;1561.60;;;;;;5112727;28;19904;-79
2021/03/05 03:45:25;;;;;;;;;;;180.00;1561.60;;;;;;5094892;28;19904;-79
2021/03/05 03:47:51;;;;;;;;;;;180.00;1536.00;;;;;;5113159;28;19912;-80
2021/03/05 03:50:40;;;;;;;;;;;179.90;1561.60;;;;;;5113199;28;19904;-79
2021/03/05 03:53:16;;;;;;;;;;;180.00;1561.60;;;;;;5029275;28;19937;-79
2021/03/05 03:55:42;;;;;;;;;;;180.00;1587.20;;;;;;5030327;28;19917;-79
2021/03/05 03:58:08;;;;;;;;;;;180.00;1587.20;;;;;;5014107;28;19904;-80
2021/03/05 04:00:35;;;;;;;;;;;179.90;1536.00;;;;;;5014798;28;19962;-79
2021/03/05 04:03:02;;;;;;;;;;;179.90;1536.00;;;;;;5033440;28;20373;-79
2021/03/05 04:05:37;;;;;;;;;;;180.10;1536.00;;;;;;5018223;28;19982;-83
2021/03/05 04:08:03;;;;;;;;;;;180.10;1510.40;;;;;;4998109;28;19912;-79
2021/03/05 04:10:29;;;;;;;;;;;180.10;1510.40;;;;;;4994539;28;20016;-79
2021/03/05 04:12:55;;;;;;;;;;;180.10;1484.80;;;;;;5011024;28;19905;-79
2021/03/05 04:15:22;;;;;;;;;;;180.10;1484.80;;;;;;4994329;28;19967;-80
2021/03/05 04:17:48;;;;;;;;;;;204.80;1484.80;;;;;;5011163;28;20033;-79
2021/03/05 04:20:14;;;;;;;;;;;180.10;1510.40;;;;;;4994365;28;20398;-79
2021/03/05 04:22:41;;;;;;;;;;;180.00;1536.00;;;;;;4994124;28;19963;-79
2021/03/05 04:25:07;;;;;;;;;;;179.60;1612.80;;;;;;4993944;28;19905;-80
2021/03/05 04:27:33;;;;;;;;;;;179.50;1536.00;;;;;;4994134;28;19916;-79
2021/03/05 04:29:58;;;;;;;;;;;179.30;1536.00;;;;;;5032234;28;19904;-79
2021/03/05 04:32:24;;;;;;;;;;;154.50;1536.00;;;;;;5077989;28;19904;-79
2021/03/05 04:34:50;;;;;;;;;;;154.40;1536.00;;;;;;5111602;28;20378;-79
2021/03/05 04:37:16;;;;;;;;;;;154.00;1561.60;;;;;;5074723;28;19908;-79
2021/03/05 04:39:41;;;;;;;;;;;153.80;1587.20;;;;;;5095810;28;19947;-78
2021/03/05 04:42:07;;;;;;;;;;;153.60;1587.20;;;;;;5077923;28;19904;-79
2021/03/05 04:44:32;;;;;;;;;;;153.60;1612.80;;;;;;5095926;28;20536;-79
2021/03/05 04:46:58;;;;;;;;;;;153.60;1612.80;;;;;;5092988;28;20322;-79
2021/03/05 04:49:23;;;;;;;;;;;153.60;1638.40;;;;;;5077522;28;19918;-79
2021/03/05 04:51:49;;;;;;;;;;;128.90;1664.00;;;;;;5077126;28;20269;-79
2021/03/05 04:54:15;;;;;;;;;;;153.70;1638.40;;;;;;5094182;28;19908;-79
2021/03/05 04:56:40;;;;;;;;;;;153.90;1612.80;;;;;;5094357;28;20369;-79
2021/03/05 04:59:06;;;;;;;;;;;154.00;1561.60;;;;;;5095666;28;20363;-79
2021/03/05 05:01:31;;;;;;;;;;;153.80;1612.80;;;;;;5095483;28;19946;-78
2021/03/05 05:03:57;;;;;;;;;;;154.00;1587.20;;;;;;5095104;28;19916;-79
2021/03/05 05:06:22;;;;;;;;;;;154.00;1561.60;;;;;;5077603;28;19912;-79
2021/03/05 05:08:48;;;;;;;;;;;154.10;1536.00;;;;;;5077316;28;19912;-79
2021/03/05 05:11:14;;;;;;;;;;;154.20;1510.40;;;;;;5095191;28;20099;-79
2021/03/05 05:13:39;;;;;;;;;;;154.30;1510.40;;;;;;5092619;28;19908;-79
2021/03/05 05:16:05;;;;;;;;;;;154.00;1561.60;;;;;;5077160;28;19912;-79
2021/03/05 05:18:30;;;;;;;;;;;154.30;1510.40;;;;;;5111009;28;19911;-79
2021/03/05 05:20:56;;;;;;;;;;;154.30;1536.00;;;;;;5076454;28;19905;-79
2021/03/05 05:23:21;;;;;;;;;;;154.50;1484.80;;;;;;5094945;28;19955;-79
2021/03/05 05:25:47;;;;;;;;;;;154.00;1561.60;;;;;;5076352;28;19904;-79
2021/03/05 05:28:12;;;;;;;;;;;153.80;1587.20;;;;;;5094875;28;19908;-79
2021/03/05 05:30:38;;;;;;;;;;;154.10;1536.00;;;;;;5076861;28;19904;-79
2021/03/05 05:33:04;;;;;;;;;;;154.30;1510.40;;;;;;5076900;28;19904;-79
2021/03/05 05:35:29;;;;;;;;;;;154.30;1510.40;;;;;;5094633;28;19963;-79
2021/03/05 05:37:55;;;;;;;;;;;154.20;1561.60;;;;;;5076602;28;19967;-83
2021/03/05 05:40:20;;;;;;;;;;;154.50;1510.40;;;;;;5091424;28;19995;-79
2021/03/05 05:42:47;;;;;;;;;;;154.40;1510.40;;;;;;5094597;28;19904;-80
2021/03/05 05:45:12;;;;;;;;;;;154.10;1561.60;;;;;;5094778;28;19908;-79
2021/03/05 05:47:38;;;;;;;;;;;154.30;1536.00;;;;;;5094570;28;19904;-78
2021/03/05 05:50:05;;;;;;;;;;;154.40;1536.00;;;;;;5094677;28;19911;-78
2021/03/05 05:52:32;;;;;;;;;;;154.30;1561.60;;;;;;5094611;28;19908;-80
2021/03/05 05:54:59;;;;;;;;;;;154.30;1561.60;;;;;;5076479;28;19912;-79
2021/03/05 05:57:26;;;;;;;;;;;154.50;1536.00;;;;;;5094450;28;19911;-80
2021/03/05 05:59:52;;;;;;;;;;;179.30;1510.40;;;;;;5094440;28;19989;-77
2021/03/05 06:02:18;;;;;;;;;;;179.40;1484.80;;;;;;5076487;28;20041;-79
2021/03/05 06:04:44;;;;;;;;;;;179.40;1561.60;;;;;;5094007;28;19919;-79
2021/03/05 06:07:10;;;;;;;;;;;179.50;1536.00;;;;;;5094396;28;19915;-80
2021/03/05 06:09:35;;;;;;;;;;;179.50;1510.40;;;;;;5076066;28;19982;-78
2021/03/05 06:12:13;;;;;;;;;;;179.80;1484.80;;;;;;5093850;28;19994;-75
2021/03/05 06:14:42;;;;;;;;;;;179.80;1484.80;;;;;;5075864;28;19958;-80
2021/03/05 06:17:08;;;;;;;;;;;179.90;1510.40;;;;;;5076199;28;20002;-81
2021/03/05 06:19:34;;;;;;;;;;;179.80;1536.00;;;;;;5094474;28;19946;-81
2021/03/05 06:22:00;;;;;;;;;;;180.00;1536.00;;;;;;5075912;28;20280;-82
2021/03/05 06:24:26;;;;;;;;;;;180.10;1510.40;;;;;;5094386;28;20003;-78
2021/03/05 06:26:55;;;;;;;;;;;179.80;1587.20;;;;;;5093788;28;20311;-77
2021/03/05 06:29:22;;;;;;;;;;;179.60;1612.80;;;;;;5093624;28;20330;-77
2021/03/05 06:32:06;;;;;;;;;;;179.40;1638.40;;;;;;5093696;28;19948;-78
2021/03/05 06:34:45;;;;;;;;;;;179.50;1638.40;;;;;;5094293;28;19916;-79
2021/03/05 06:37:11;;;;;;;;;;;179.60;1664.00;;;;;;5093971;28;20290;-78
2021/03/05 06:39:37;;;;;;;;;;;179.60;1664.00;;;;;;5093934;28;19904;-77
2021/03/05 06:42:07;;;;;;;;;;;179.60;1664.00;;;;;;5094011;28;19908;-78
2021/03/05 06:44:36;;;;;;;;;;;179.60;1664.00;;;;;;5093973;28;19908;-76
2021/03/05 06:47:18;;;;;;;;;;;179.80;1664.00;;;;;;5093887;28;20363;-77
2021/03/05 06:49:47;;;;;;;;;;;179.90;1638.40;;;;;;5093860;28;19907;-77
2021/03/05 06:52:13;;;;;;;;;;;204.80;1638.40;;;;;;5093031;28;19943;-79
2021/03/05 06:54:39;;;;;;;;;;;205.00;1612.80;;;;;;5093813;28;19916;-77
2021/03/05 06:57:05;;;;;;;;;;;205.20;1587.20;;;;;;5093584;28;19904;-77
2021/03/05 06:59:36;;;;;;;;;;;205.20;1561.60;;;;;;5093612;28;19911;-77
2021/03/05 07:02:03;;;;;;;;;;;205.50;1561.60;;;;;;5093558;28;19957;-75
2021/03/05 07:04:29;;;;;;;;;;;205.70;1510.40;;;;;;5093463;28;19916;-78
2021/03/05 07:06:56;;;;;;;;;;;205.70;1510.40;;;;;;5093412;28;19914;-77
2021/03/05 07:09:26;;;;;;;;;;;230.50;1459.20;;;;;;5093158;28;20020;-78
2021/03/05 07:11:53;;;;;;;;;;;230.60;1433.60;;;;;;5093040;28;19908;-77
2021/03/05 07:14:19;;;;;;;;;;;230.80;1433.60;;;;;;5108685;28;19912;-78
2021/03/05 07:16:46;;;;;;;;;;;230.80;1408.00;;;;;;5092913;28;20281;-79
2021/03/05 07:19:12;;;;;;;;;;;230.90;1408.00;;;;;;5092984;28;19915;-78
2021/03/05 07:21:39;;;;;;;;;;;230.90;1408.00;;;;;;5072041;28;20319;-77
2021/03/05 07:24:06;;;;;;;;;;;230.90;1408.00;;;;;;5092730;28;20369;-76
2021/03/05 07:26:34;;;;;;;;;;;231.00;1382.40;;;;;;5092816;28;20353;-76
2021/03/05 07:29:00;;;;;;;;;;;231.10;1382.40;;;;;;5092481;28;19912;-75
2021/03/05 07:31:27;;;;;;;;;;;231.20;1382.40;;;;;;5074429;28;19995;-77
2021/03/05 07:33:54;;;;;;;;;;;231.30;1382.40;;;;;;5075007;28;19908;-79
2021/03/05 07:36:23;;;;;;;;;;;256.00;1356.80;;;;;;5092079;28;20391;-79
2021/03/05 07:38:51;;;;;;;;;;;256.00;1331.20;;;;;;5092739;28;19947;-76
2021/03/05 07:41:20;;;;;;;;;;;256.20;1331.20;;;;;;5093018;28;19957;-75
2021/03/05 07:43:46;;;;;;;;;;;256.30;1331.20;;;;;;5075070;28;19904;-76
2021/03/05 07:46:12;;;;;;;;;;;256.40;1280.00;;;;;;5074513;28;19998;-77
2021/03/05 07:48:38;;;;;;;;;;;256.60;1254.40;;;;;;5075197;28;19904;-78
2021/03/05 07:51:03;;;;;;;;;;;256.70;1203.20;;;;;;5074983;28;19943;-82
2021/03/05 07:53:29;;;;;;;;;;;256.90;1203.20;;;;;;5093159;28;19908;-79
2021/03/05 07:55:55;;;;;;;;;;;281.60;1203.20;;;;;;5093200;28;20245;-79
2021/03/05 07:58:39;;;;;;;;;;;281.70;1177.60;;;;;;5093451;28;19904;-79
2021/03/05 08:01:04;;;;;;;;;;;281.80;1203.20;;;;;;5092959;28;19912;-78
2021/03/05 08:03:50;;;;;;;;;;;281.90;1177.60;;;;;;5093556;28;19916;-79
2021/03/05 08:06:28;;;;;;;;;;;282.00;1177.60;;;;;;5118323;28;20010;-77
2021/03/05 08:09:06;;;;;;;;;;;282.10;1152.00;;;;;;5098999;28;19968;-78
2021/03/05 08:11:35;;;;;;;;;;;282.20;1126.40;;;;;;5117167;28;19904;-78
2021/03/05 08:14:20;;;;;;;;;;;282.30;1152.00;;;;;;5097913;28;20348;-84
2021/03/05 08:16:49;;;;;;;;;;;282.40;1126.40;;;;;;5115387;28;19918;-83
2021/03/05 08:19:16;;;;;;;;;;;282.50;1100.80;;;;;;5117243;28;19910;-79
2021/03/05 08:21:50;;;;;;;;;;;307.20;1126.40;;;;;;5117646;28;20420;-83
2021/03/05 08:24:26;;;;;;;;;;;307.30;1100.80;;;;;;5111029;28;19907;-77
2021/03/05 08:26:58;;;;;;;;;;;307.40;1126.40;;;;;;5116405;28;19908;-80
2021/03/05 08:29:53;;;;;;;;;;;307.50;1100.80;;;;;;5116862;28;20504;-77
2021/03/05 08:32:40;;;;;;;;;;;307.60;1100.80;;;;;;5053989;28;19998;-81
2021/03/05 08:35:07;;;;;;;;;;;307.80;1100.80;;;;;;5043682;28;19923;-83
2021/03/05 08:37:36;;;;;;;;;;;308.10;1075.20;;;;;;5054213;28;19913;-82
2021/03/05 08:40:16;;;;;;;;;;;332.80;1049.60;;;;;;5054402;28;19908;-81
2021/03/05 08:42:52;;;;;;;;;;;333.00;1024.00;;;;;;5071521;28;19905;-86
2021/03/05 08:45:22;;;;;;;;;;;333.10;1024.00;;;;;;5038100;28;19959;-80
2021/03/05 08:47:48;;;;;;;;;;;333.20;972.80;;;;;;5054279;28;20433;-82
2021/03/05 08:50:15;;;;;;;;;;;333.40;972.80;;;;;;5054051;28;19912;-83
2021/03/05 08:52:41;;;;;;;;;;;333.50;972.80;;;;;;5036755;28;19905;-80
2021/03/05 08:55:07;;;;;;;;;;;333.60;972.80;;;;;;5053283;28;20441;-79
2021/03/05 08:57:55;;;;;;;;;;;333.70;972.80;;;;;;5052850;28;20006;-76
2021/03/05 09:00:22;;;;;;;;;;;333.70;972.80;;;;;;5053607;28;19908;-82
2021/03/05 09:02:48;;;;;;;;;;;333.70;972.80;;;;;;5033749;28;19912;-78
2021/03/05 09:05:25;;;;;;;;;;;333.70;998.40;;;;;;5053281;28;19947;-79
2021/03/05 09:07:51;;;;;;;;;;;333.70;998.40;;;;;;5056811;28;19908;-78
2021/03/05 09:10:18;;;;;;;;;;;358.40;998.40;;;;;;5095471;28;19912;-78
2021/03/05 09:12:57;;;;;;;;;;;358.40;998.40;;;;;;5095563;28;19908;-75
2021/03/05 09:15:25;;;;;;;;;;;358.50;972.80;;;;;;5094341;28;19916;-82
2021/03/05 09:17:51;;;;;;;;;;;358.40;972.80;;;;;;5095754;28;19908;-79
2021/03/05 09:20:16;;;;;;;;;;;358.50;972.80;;;;;;5095363;28;19930;-78
2021/03/05 09:22:42;;;;;;;;;;;358.60;972.80;;;;;;5095203;28;19908;-79
2021/03/05 09:25:10;;;;;;;;;;;358.50;998.40;;;;;;5094865;28;19986;-79
2021/03/05 09:27:35;;;;;;;;;;;358.60;998.40;;;;;;5076217;28;19904;-79
2021/03/05 09:30:12;;;;;;;;;;;358.70;998.40;;;;;;5094547;28;19915;-77
2021/03/05 09:32:48;;;;;;;;;;;358.80;972.80;;;;;;5075256;28;19908;-78
2021/03/05 09:35:14;;;;;;;;;;;359.00;947.20;;;;;;5093734;28;19916;-77
2021/03/05 09:37:40;;;;;;;;;;;359.30;947.20;;;;;;5094376;28;19912;-78
2021/03/05 09:40:07;;;;;;;;;;;384.10;921.60;;;;;;5094523;28;19943;-78
2021/03/05 09:42:42;;;;;;;;;;;384.20;947.20;;;;;;5094596;28;19914;-77
2021/03/05 09:45:08;;;;;;;;;;;384.30;947.20;;;;;;5074577;28;19904;-79
2021/03/05 09:47:49;;;;;;;;;;;384.30;947.20;;;;;;5094436;28;20022;-79
2021/03/05 09:50:15;;;;;;;;;;;384.30;947.20;;;;;;5076455;28;19912;-75
2021/03/05 09:52:41;;;;;;;;;;;384.30;972.80;;;;;;5075454;28;19912;-76
2021/03/05 09:55:07;;;;;;;;;;;384.30;972.80;;;;;;5093609;28;19969;-77
2021/03/05 09:57:37;;;;;;;;;;;384.30;947.20;;;;;;5093562;28;19911;-76
2021/03/05 10:00:03;;;;;;;;;;;384.30;947.20;;;;;;5093422;28;19994;-77
2021/03/05 10:02:35;;;;;;;;;;;384.30;947.20;;;;;;5093906;28;19998;-73
2021/03/05 10:05:01;;;;;;;;;;;384.20;947.20;;;;;;5097356;28;19916;-74
2021/03/05 10:07:26;;;;;;;;;;;384.10;947.20;;;;;;5094498;28;19914;-74
2021/03/05 10:10:05;;;;;;;;;;;384.40;972.80;;;;;;5094362;28;19908;-75
2021/03/05 10:12:31;;;;;;;;;;;384.70;947.20;;;;;;5081782;28;19954;-75
2021/03/05 10:15:06;;;;;;;;;;;409.60;947.20;;;;;;5103598;28;20448;-74
2021/03/05 10:17:38;;;;;;;;;;;409.70;947.20;;;;;;5098387;28;19987;-76
2021/03/05 10:20:04;;;;;;;;;;;410.00;972.80;;;;;;5109682;28;19916;-77
2021/03/05 10:22:32;;;;;;;;;;;410.30;972.80;;;;;;5084741;28;19911;-76
2021/03/05 10:24:57;;;;;;;;;;;410.40;947.20;;;;;;5087812;28;19908;-75
2021/03/05 10:27:23;;;;;;;;;;;410.50;947.20;;;;;;5105269;28;19918;-79
2021/03/05 10:29:50;;;;;;;;;;;435.30;947.20;;;;;;5105919;28;19948;-76
2021/03/05 10:32:19;;;;;;;;;;;435.40;921.60;;;;;;5114418;28;20303;-80
2021/03/05 10:34:46;;;;;;;;;;;435.50;921.60;;;;;;5095539;28;19920;-78
2021/03/05 10:37:13;;;;;;;;;;;435.80;896.00;;;;;;5114309;28;20037;-77
2021/03/05 10:39:38;;;;;;;;;;;435.80;896.00;;;;;;5114381;28;19904;-78
2021/03/05 10:42:05;;;;;;;;;;;435.80;896.00;;;;;;5109907;28;19915;-78
2021/03/05 10:44:31;;;;;;;;;;;435.60;896.00;;;;;;5093910;28;19911;-77
2021/03/05 10:46:58;;;;;;;;;;;435.50;921.60;;;;;;5093927;28;19904;-79
2021/03/05 10:49:24;;;;;;;;;;;435.30;921.60;;;;;;5093779;28;19994;-78
2021/03/05 10:51:50;;;;;;;;;;;435.20;947.20;;;;;;5097422;28;20365;-75
2021/03/05 10:54:15;;;;;;;;;;;410.50;947.20;;;;;;5108473;28;19917;-78
2021/03/05 10:56:41;;;;;;;;;;;410.30;972.80;;;;;;5105468;28;19912;-78
2021/03/05 10:59:08;;;;;;;;;;;410.30;972.80;;;;;;5105211;28;20424;-79
2021/03/05 11:01:33;;;;;;;;;;;410.30;972.80;;;;;;5113973;28;19953;-78
2021/03/05 11:03:59;;;;;;;;;;;410.50;947.20;;;;;;5085050;28;19912;-78
2021/03/05 11:06:25;;;;;;;;;;;435.20;947.20;;;;;;5111228;28;19912;-77
2021/03/05 11:08:50;;;;;;;;;;;435.20;947.20;;;;;;5113862;28;19903;-76
2021/03/05 11:11:16;;;;;;;;;;;435.20;972.80;;;;;;5113727;28;19919;-77
2021/03/05 11:13:42;;;;;;;;;;;435.40;972.80;;;;;;5094285;28;19908;-77
2021/03/05 11:16:07;;;;;;;;;;;435.70;972.80;;;;;;5083282;28;19958;-77
2021/03/05 11:18:33;;;;;;;;;;;435.80;972.80;;;;;;5083481;28;19908;-77
2021/03/05 11:20:59;;;;;;;;;;;435.90;921.60;;;;;;5085764;28;19915;-75
2021/03/05 11:23:24;;;;;;;;;;;435.90;921.60;;;;;;5238249;23;19920;-74
2021/03/05 11:25:52;;;;;;;;;;;435.70;947.20;;;;;;5053758;28;19947;-74
2021/03/05 11:28:17;;;;;;;;;;;435.70;947.20;;;;;;5072150;28;20341;-74
2021/03/05 11:30:44;;;;;;;;;;;435.40;998.40;;;;;;5072790;28;19954;-73
2021/03/05 11:33:10;;;;;;;;;;;435.60;972.80;;;;;;5072421;28;20384;-75
2021/03/05 11:35:37;;;;;;;;;;;435.80;947.20;;;;;;5053654;28;19917;-74
2021/03/05 11:38:02;;;;;;;;;;;435.80;947.20;;;;;;5054791;28;20337;-74
2021/03/05 11:40:28;;;;;;;;;;;435.70;972.80;;;;;;5059007;28;19951;-74
2021/03/05 11:42:53;;;;;;;;;;;435.60;972.80;;;;;;5077031;28;19904;-74
2021/03/05 11:45:19;;;;;;;;;;;435.70;972.80;;;;;;5059153;28;19956;-75
2021/03/05 11:47:45;;;;;;;;;;;435.40;972.80;;;;;;5077078;28;19911;-74
2021/03/05 11:50:11;;;;;;;;;;;435.40;1024.00;;;;;;5076949;28;19905;-74
2021/03/05 11:52:36;;;;;;;;;;;410.40;1024.00;;;;;;5075991;28;19916;-76
2021/03/05 11:55:02;;;;;;;;;;;410.30;1024.00;;;;;;5058777;28;19919;-75
2021/03/05 11:57:28;;;;;;;;;;;410.20;1049.60;;;;;;5055222;28;19904;-76
2021/03/05 11:59:53;;;;;;;;;;;410.40;1024.00;;;;;;5038544;28;19911;-76
2021/03/05 12:02:19;;;;;;;;;;;435.50;998.40;;;;;;5054361;28;19908;-77
2021/03/05 12:04:45;;;;;;;;;;;435.50;1024.00;;;;;;5057876;28;19995;-75
2021/03/05 12:07:10;;;;;;;;;;;410.50;1049.60;;;;;;5075883;28;19983;-76
2021/03/05 12:09:36;;;;;;;;;;;435.20;1049.60;;;;;;5057752;28;19930;-76
2021/03/05 12:12:02;;;;;;;;;;;410.30;1024.00;;;;;;5057488;28;19979;-76
2021/03/05 12:16:52;;;;;;;26.33;15.20;;;410.50;1024.00;;;;;;5117808;27;20881;-75
2021/03/05 12:19:17;;;;;;;31.05;17.05;;;410.10;1024.00;;;;;;5098364;28;20070;-78
2021/03/05 12:21:43;;;;;;;34.53;17.08;;;409.80;1049.60;;;;;;5100077;28;20056;-79
2021/03/05 12:24:09;;;;;;;38.72;19.13;;;409.60;1100.80;;;;;;5097229;28;20025;-78
2021/03/05 12:26:35;;;;;;;31.65;16.63;;;384.90;1075.20;;;;;;5090266;28;20024;-79
2021/03/05 12:29:01;;;;;;;28.10;15.93;;;384.80;1075.20;;;;;;5089308;28;20050;-80
2021/03/05 12:31:26;;;;;;;27.63;16.40;;;384.80;1075.20;;;;;;5090248;28;20028;-78
2021/03/05 12:33:54;;;;;;;27.60;14.30;;;384.60;1100.80;;;;;;5105858;28;20107;-77
2021/03/05 12:36:20;;;;;;;36.72;16.85;;;384.50;1100.80;;;;;;5089060;28;20051;-77
2021/03/05 12:38:46;;;;;;;34.45;18.33;;;384.40;1100.80;;;;;;5090280;28;20059;-77
2021/03/05 12:41:11;;;;;;;36.55;16.80;;;384.20;1100.80;;;;;;5088971;28;20040;-78
2021/03/05 12:43:37;;;;;;;41.72;20.30;;;384.10;1126.40;;;;;;5090199;28;20028;-79
2021/03/05 12:46:03;;;;;;;34.03;18.75;;;384.10;1152.00;;;;;;5105344;28;20089;-78
2021/03/05 12:48:29;;;;;;;47.22;21.02;;;384.00;1152.00;;;;;;5105609;28;20043;-78
2021/03/05 12:50:54;;;;;;;31.65;19.58;;;384.00;1177.60;;;;;;5090055;28;20016;-78
2021/03/05 12:53:20;;;;;;;37.65;20.38;;;359.30;1203.20;;;;;;5087824;28;20107;-79
2021/03/05 12:55:46;;;;;;;33.22;19.63;;;359.30;1228.80;;;;;;5089939;28;20040;-79
2021/03/05 12:58:12;;;;;;;35.22;19.33;;;359.10;1280.00;;;;;;5106772;28;20388;-78
2021/03/05 13:00:37;;;;;;;41.35;21.00;;;359.20;1254.40;;;;;;5091691;28;20078;-79
2021/03/05 13:03:04;;;;;;;34.35;18.35;;;359.30;1228.80;;;;;;5088833;28;20040;-79
2021/03/05 13:05:29;;;;;;;36.53;21.63;;;359.20;1254.40;;;;;;5088379;28;20054;-79
2021/03/05 13:07:55;;;;;;;26.15;17.13;;;384.00;1203.20;;;;;;5088409;28;20161;-82
2021/03/05 13:10:22;;;;;;;33.97;22.25;;;359.30;1228.80;;;;;;5088727;28;20032;-78
2021/03/05 13:12:47;;;;;;;31.67;20.58;;;384.00;1254.40;;;;;;5091213;28;20028;-77
2021/03/05 13:15:15;;;;;;;35.22;20.15;;;359.30;1254.40;;;;;;5096981;28;20043;-76
2021/03/05 13:17:41;;;;;;;36.22;22.15;;;359.20;1280.00;;;;;;5094470;28;20037;-78
2021/03/05 13:20:08;;;;;;;30.98;19.58;;;359.10;1280.00;;;;;;5093683;28;20024;-78
2021/03/05 13:22:33;;;;;;;39.92;21.60;;;359.10;1280.00;;;;;;5098843;28;20027;-78
2021/03/05 13:25:00;;;;;;;36.72;22.23;;;359.20;1254.40;;;;;;5097308;28;20030;-79
2021/03/05 13:27:25;;;;;;;36.50;21.30;;;384.00;1254.40;;;;;;5086598;28;20028;-78
2021/03/05 13:29:51;;;;;;;39.88;22.88;;;384.10;1254.40;;;;;;5084469;28;20024;-78
2021/03/05 13:32:17;;;;;;;39.22;24.73;;;384.10;1228.80;;;;;;5084027;28;20475;-77
2021/03/05 13:34:43;;;;;;;33.35;21.10;;;384.20;1254.40;;;;;;5083005;28;20597;-78
2021/03/05 13:37:08;;;;;;;33.42;19.85;;;384.00;1228.80;;;;;;5085745;28;20020;-78